ESSD/BLE METAR and TAF weather

Enter ICAO airport designator
Station Type Date Time Source
ESSD METAR 2018/09/20 18:20 UTC NOAA

ESSD 201820Z 22011KT CAVOK 12/06 Q1003


Station Type Date Time Source
ESSD Decoded METAR 2018/09/20 18:20 UTC NOAA

Borlange, Sweden (ESSD) 60-26N 015-31E 0M
Sep 20, 2018 - 02:20 PM EDT / 2018.09.20 1820 UTC
Wind: from the SW (220 degrees) at 13 MPH (11 KT):0
Visibility: greater than 7 mile(s):0
Temperature: 53 F (12 C)
Dew Point: 42 F (6 C)
Relative Humidity: 66%
Pressure (altimeter): 29.62 in. Hg (1003 hPa)
ob: ESSD 201820Z 22011KT CAVOK 12/06 Q1003
cycle: 18

Station Type Date Time Source
ESSD TAF 2018/05/02 04:48 UTC NOAA

TAF TAF ESSD 020320Z 0204/0412 27008KT 9999 BKN019 PROB40 0204/0209 BKN006


Example: see airport list